sensor_id;sensor_type;location;lat;lon;timestamp;temperature;humidity
17697;DHT22;8967;47.984;7.842;2023-09-12T00:02:24;22.20;90.80
17697;DHT22;8967;47.984;7.842;2023-09-12T00:04:53;22.10;90.80
17697;DHT22;8967;47.984;7.842;2023-09-12T00:07:20;22.10;90.80
17697;DHT22;8967;47.984;7.842;2023-09-12T00:09:47;22.10;90.90
17697;DHT22;8967;47.984;7.842;2023-09-12T00:12:15;22.10;90.90
17697;DHT22;8967;47.984;7.842;2023-09-12T00:14:42;22.00;90.90
17697;DHT22;8967;47.984;7.842;2023-09-12T00:17:09;22.00;91.00
17697;DHT22;8967;47.984;7.842;2023-09-12T00:19:38;22.00;91.10
17697;DHT22;8967;47.984;7.842;2023-09-12T00:22:10;22.00;91.20
17697;DHT22;8967;47.984;7.842;2023-09-12T00:24:37;21.90;91.20
17697;DHT22;8967;47.984;7.842;2023-09-12T00:27:07;21.90;91.20
17697;DHT22;8967;47.984;7.842;2023-09-12T00:29:34;21.90;91.30
17697;DHT22;8967;47.984;7.842;2023-09-12T00:32:04;21.90;91.30
17697;DHT22;8967;47.984;7.842;2023-09-12T00:34:31;21.90;91.30
17697;DHT22;8967;47.984;7.842;2023-09-12T00:36:59;21.90;91.30
17697;DHT22;8967;47.984;7.842;2023-09-12T00:39:26;21.90;91.20
17697;DHT22;8967;47.984;7.842;2023-09-12T00:41:53;21.90;91.20
17697;DHT22;8967;47.984;7.842;2023-09-12T00:44:21;21.90;91.10
17697;DHT22;8967;47.984;7.842;2023-09-12T00:46:49;21.80;91.00
17697;DHT22;8967;47.984;7.842;2023-09-12T00:49:20;21.80;91.10
17697;DHT22;8967;47.984;7.842;2023-09-12T00:51:49;21.80;91.40
17697;DHT22;8967;47.984;7.842;2023-09-12T00:54:18;21.80;91.20
17697;DHT22;8967;47.984;7.842;2023-09-12T00:56:45;21.80;91.20
17697;DHT22;8967;47.984;7.842;2023-09-12T00:59:13;21.80;91.30
17697;DHT22;8967;47.984;7.842;2023-09-12T01:01:41;21.80;91.40
17697;DHT22;8967;47.984;7.842;2023-09-12T01:04:09;21.80;91.50
17697;DHT22;8967;47.984;7.842;2023-09-12T01:06:39;21.80;91.50
17697;DHT22;8967;47.984;7.842;2023-09-12T01:09:06;21.80;91.50
17697;DHT22;8967;47.984;7.842;2023-09-12T01:11:35;21.80;91.50
17697;DHT22;8967;47.984;7.842;2023-09-12T01:14:06;21.80;91.60
17697;DHT22;8967;47.984;7.842;2023-09-12T01:16:33;21.80;91.60
17697;DHT22;8967;47.984;7.842;2023-09-12T01:19:00;21.80;91.60
17697;DHT22;8967;47.984;7.842;2023-09-12T01:22:09;21.80;91.70
17697;DHT22;8967;47.984;7.842;2023-09-12T01:25:06;21.80;91.70
17697;DHT22;8967;47.984;7.842;2023-09-12T01:27:38;21.80;91.80
17697;DHT22;8967;47.984;7.842;2023-09-12T01:30:12;21.80;91.80
17697;DHT22;8967;47.984;7.842;2023-09-12T01:32:40;21.90;91.90
17697;DHT22;8967;47.984;7.842;2023-09-12T01:35:08;21.80;92.00
17697;DHT22;8967;47.984;7.842;2023-09-12T01:37:35;21.80;92.10
17697;DHT22;8967;47.984;7.842;2023-09-12T01:40:03;21.80;92.20
17697;DHT22;8967;47.984;7.842;2023-09-12T01:42:37;21.80;92.20
17697;DHT22;8967;47.984;7.842;2023-09-12T01:45:06;21.80;92.30
17697;DHT22;8967;47.984;7.842;2023-09-12T01:47:34;21.80;92.30
17697;DHT22;8967;47.984;7.842;2023-09-12T01:50:02;21.80;92.40
17697;DHT22;8967;47.984;7.842;2023-09-12T01:52:30;21.90;92.40
17697;DHT22;8967;47.984;7.842;2023-09-12T01:54:58;21.80;92.40
17697;DHT22;8967;47.984;7.842;2023-09-12T01:57:26;21.90;92.50
17697;DHT22;8967;47.984;7.842;2023-09-12T01:59:54;21.90;92.60
17697;DHT22;8967;47.984;7.842;2023-09-12T02:02:21;21.90;92.60
17697;DHT22;8967;47.984;7.842;2023-09-12T02:04:54;21.80;92.60
17697;DHT22;8967;47.984;7.842;2023-09-12T02:07:27;21.80;92.70
17697;DHT22;8967;47.984;7.842;2023-09-12T02:09:56;21.90;92.70
17697;DHT22;8967;47.984;7.842;2023-09-12T02:12:23;21.80;92.70
17697;DHT22;8967;47.984;7.842;2023-09-12T02:14:50;21.80;92.70
17697;DHT22;8967;47.984;7.842;2023-09-12T02:17:19;21.80;92.80
17697;DHT22;8967;47.984;7.842;2023-09-12T02:19:48;21.80;92.90
17697;DHT22;8967;47.984;7.842;2023-09-12T02:22:18;21.80;92.90
17697;DHT22;8967;47.984;7.842;2023-09-12T02:24:48;21.70;93.00
17697;DHT22;8967;47.984;7.842;2023-09-12T02:27:15;21.70;93.10
17697;DHT22;8967;47.984;7.842;2023-09-12T02:29:44;21.70;93.10
17697;DHT22;8967;47.984;7.842;2023-09-12T02:32:16;21.70;93.10
17697;DHT22;8967;47.984;7.842;2023-09-12T02:34:47;21.70;93.20
17697;DHT22;8967;47.984;7.842;2023-09-12T02:37:14;21.60;93.20
17697;DHT22;8967;47.984;7.842;2023-09-12T02:39:41;21.70;93.20
17697;DHT22;8967;47.984;7.842;2023-09-12T02:42:08;21.60;93.20
17697;DHT22;8967;47.984;7.842;2023-09-12T02:44:35;21.60;93.20
17697;DHT22;8967;47.984;7.842;2023-09-12T02:47:03;21.60;93.10
17697;DHT22;8967;47.984;7.842;2023-09-12T02:49:30;21.60;93.10
17697;DHT22;8967;47.984;7.842;2023-09-12T02:51:59;21.60;93.10
17697;DHT22;8967;47.984;7.842;2023-09-12T02:54:28;21.60;93.10
17697;DHT22;8967;47.984;7.842;2023-09-12T02:56:55;21.60;93.10
17697;DHT22;8967;47.984;7.842;2023-09-12T02:59:22;21.60;93.10
17697;DHT22;8967;47.984;7.842;2023-09-12T03:01:49;21.50;93.00
17697;DHT22;8967;47.984;7.842;2023-09-12T03:04:17;21.50;93.20
17697;DHT22;8967;47.984;7.842;2023-09-12T03:06:44;21.50;92.90
17697;DHT22;8967;47.984;7.842;2023-09-12T03:09:13;21.50;93.00
17697;DHT22;8967;47.984;7.842;2023-09-12T03:11:42;21.50;93.00
17697;DHT22;8967;47.984;7.842;2023-09-12T03:14:09;21.50;93.10
17697;DHT22;8967;47.984;7.842;2023-09-12T03:16:36;21.50;93.30
17697;DHT22;8967;47.984;7.842;2023-09-12T03:19:04;21.50;93.30
17697;DHT22;8967;47.984;7.842;2023-09-12T03:21:31;21.50;93.40
17697;DHT22;8967;47.984;7.842;2023-09-12T03:23:58;21.50;93.50
17697;DHT22;8967;47.984;7.842;2023-09-12T03:26:26;21.50;93.50
17697;DHT22;8967;47.984;7.842;2023-09-12T03:28:54;21.50;93.60
17697;DHT22;8967;47.984;7.842;2023-09-12T03:31:22;21.40;93.60
17697;DHT22;8967;47.984;7.842;2023-09-12T03:33:49;21.40;93.70
17697;DHT22;8967;47.984;7.842;2023-09-12T03:36:17;21.40;93.70
17697;DHT22;8967;47.984;7.842;2023-09-12T03:38:44;21.30;93.70
17697;DHT22;8967;47.984;7.842;2023-09-12T03:41:11;21.30;93.80
17697;DHT22;8967;47.984;7.842;2023-09-12T03:43:42;21.30;93.80
17697;DHT22;8967;47.984;7.842;2023-09-12T03:46:09;21.30;93.80
17697;DHT22;8967;47.984;7.842;2023-09-12T03:48:36;21.30;93.80
17697;DHT22;8967;47.984;7.842;2023-09-12T03:51:03;21.30;93.90
17697;DHT22;8967;47.984;7.842;2023-09-12T03:53:31;21.20;93.90
17697;DHT22;8967;47.984;7.842;2023-09-12T03:56:00;21.20;94.00
17697;DHT22;8967;47.984;7.842;2023-09-12T03:58:28;21.20;94.00
17697;DHT22;8967;47.984;7.842;2023-09-12T04:00:56;21.20;94.00
17697;DHT22;8967;47.984;7.842;2023-09-12T04:03:23;21.20;94.00
17697;DHT22;8967;47.984;7.842;2023-09-12T04:05:51;21.20;93.90
17697;DHT22;8967;47.984;7.842;2023-09-12T04:08:18;21.20;93.90
17697;DHT22;8967;47.984;7.842;2023-09-12T04:10:45;21.20;94.00
17697;DHT22;8967;47.984;7.842;2023-09-12T04:13:12;21.20;93.90
17697;DHT22;8967;47.984;7.842;2023-09-12T04:15:39;21.20;93.90
17697;DHT22;8967;47.984;7.842;2023-09-12T04:18:10;21.20;94.00
17697;DHT22;8967;47.984;7.842;2023-09-12T04:20:37;21.10;94.00
17697;DHT22;8967;47.984;7.842;2023-09-12T04:23:06;21.10;94.10
17697;DHT22;8967;47.984;7.842;2023-09-12T04:25:36;21.10;94.10
17697;DHT22;8967;47.984;7.842;2023-09-12T04:28:03;21.10;94.20
17697;DHT22;8967;47.984;7.842;2023-09-12T04:30:31;21.10;94.30
17697;DHT22;8967;47.984;7.842;2023-09-12T04:32:58;21.10;94.20
17697;DHT22;8967;47.984;7.842;2023-09-12T04:35:32;21.10;94.30
17697;DHT22;8967;47.984;7.842;2023-09-12T04:37:59;21.10;94.20
17697;DHT22;8967;47.984;7.842;2023-09-12T04:40:29;21.10;94.30
17697;DHT22;8967;47.984;7.842;2023-09-12T04:42:57;21.10;94.30
17697;DHT22;8967;47.984;7.842;2023-09-12T04:45:24;21.10;94.40
17697;DHT22;8967;47.984;7.842;2023-09-12T04:47:51;21.10;94.40
17697;DHT22;8967;47.984;7.842;2023-09-12T04:50:19;21.10;94.40
17697;DHT22;8967;47.984;7.842;2023-09-12T04:52:49;21.10;94.50
17697;DHT22;8967;47.984;7.842;2023-09-12T04:55:17;21.10;94.40
17697;DHT22;8967;47.984;7.842;2023-09-12T04:57:48;21.10;94.30
17697;DHT22;8967;47.984;7.842;2023-09-12T05:00:16;21.00;94.30
17697;DHT22;8967;47.984;7.842;2023-09-12T05:02:49;21.00;94.30
17697;DHT22;8967;47.984;7.842;2023-09-12T05:05:16;21.00;94.40
17697;DHT22;8967;47.984;7.842;2023-09-12T05:07:43;21.00;94.50
17697;DHT22;8967;47.984;7.842;2023-09-12T05:10:12;21.00;94.40
17697;DHT22;8967;47.984;7.842;2023-09-12T05:12:39;21.00;94.40
17697;DHT22;8967;47.984;7.842;2023-09-12T05:15:07;21.00;94.50
17697;DHT22;8967;47.984;7.842;2023-09-12T05:17:34;21.00;94.50
17697;DHT22;8967;47.984;7.842;2023-09-12T05:20:05;21.00;94.60
17697;DHT22;8967;47.984;7.842;2023-09-12T05:22:34;21.00;94.60
17697;DHT22;8967;47.984;7.842;2023-09-12T05:25:01;21.00;94.60
17697;DHT22;8967;47.984;7.842;2023-09-12T05:27:30;21.00;94.60
17697;DHT22;8967;47.984;7.842;2023-09-12T05:29:57;21.00;94.60
17697;DHT22;8967;47.984;7.842;2023-09-12T05:32:30;21.00;94.60
17697;DHT22;8967;47.984;7.842;2023-09-12T05:34:57;21.00;94.70
17697;DHT22;8967;47.984;7.842;2023-09-12T05:37:25;21.00;94.70
17697;DHT22;8967;47.984;7.842;2023-09-12T05:39:52;21.00;94.60
17697;DHT22;8967;47.984;7.842;2023-09-12T05:42:19;21.00;94.70
17697;DHT22;8967;47.984;7.842;2023-09-12T05:44:50;21.00;94.70
17697;DHT22;8967;47.984;7.842;2023-09-12T05:47:19;21.10;94.60
17697;DHT22;8967;47.984;7.842;2023-09-12T05:49:49;21.00;94.60
17697;DHT22;8967;47.984;7.842;2023-09-12T05:52:16;21.10;94.60
17697;DHT22;8967;47.984;7.842;2023-09-12T05:54:44;21.00;94.60
17697;DHT22;8967;47.984;7.842;2023-09-12T05:57:11;21.10;94.60
17697;DHT22;8967;47.984;7.842;2023-09-12T05:59:39;21.10;94.60
17697;DHT22;8967;47.984;7.842;2023-09-12T06:02:08;21.10;94.60
17697;DHT22;8967;47.984;7.842;2023-09-12T06:04:36;21.10;94.50
17697;DHT22;8967;47.984;7.842;2023-09-12T06:07:03;21.10;94.60
17697;DHT22;8967;47.984;7.842;2023-09-12T06:09:33;21.10;94.50
17697;DHT22;8967;47.984;7.842;2023-09-12T06:12:03;21.10;94.50
17697;DHT22;8967;47.984;7.842;2023-09-12T06:14:30;21.10;94.50
17697;DHT22;8967;47.984;7.842;2023-09-12T06:16:58;21.10;94.50
17697;DHT22;8967;47.984;7.842;2023-09-12T06:19:28;21.10;94.50
17697;DHT22;8967;47.984;7.842;2023-09-12T06:21:56;21.10;94.50
17697;DHT22;8967;47.984;7.842;2023-09-12T06:24:24;21.20;94.60
17697;DHT22;8967;47.984;7.842;2023-09-12T06:26:51;21.20;94.50
17697;DHT22;8967;47.984;7.842;2023-09-12T06:29:21;21.20;94.70
17697;DHT22;8967;47.984;7.842;2023-09-12T06:31:48;21.30;94.60
17697;DHT22;8967;47.984;7.842;2023-09-12T06:34:15;21.30;94.70
17697;DHT22;8967;47.984;7.842;2023-09-12T06:36:43;21.30;94.80
17697;DHT22;8967;47.984;7.842;2023-09-12T06:39:11;21.30;94.80
17697;DHT22;8967;47.984;7.842;2023-09-12T06:41:38;21.30;94.80
17697;DHT22;8967;47.984;7.842;2023-09-12T06:44:05;21.30;94.70
17697;DHT22;8967;47.984;7.842;2023-09-12T06:46:35;21.40;94.80
17697;DHT22;8967;47.984;7.842;2023-09-12T06:49:05;21.40;94.80
17697;DHT22;8967;47.984;7.842;2023-09-12T06:51:32;21.40;94.80
17697;DHT22;8967;47.984;7.842;2023-09-12T06:54:01;21.40;95.00
17697;DHT22;8967;47.984;7.842;2023-09-12T06:56:28;21.50;95.00
17697;DHT22;8967;47.984;7.842;2023-09-12T06:58:55;21.50;95.00
17697;DHT22;8967;47.984;7.842;2023-09-12T07:01:26;21.50;95.00
17697;DHT22;8967;47.984;7.842;2023-09-12T07:03:57;21.60;95.10
17697;DHT22;8967;47.984;7.842;2023-09-12T07:06:24;21.60;95.00
17697;DHT22;8967;47.984;7.842;2023-09-12T07:08:51;21.70;94.80
17697;DHT22;8967;47.984;7.842;2023-09-12T07:11:20;21.80;94.70
17697;DHT22;8967;47.984;7.842;2023-09-12T07:13:47;21.90;94.70
17697;DHT22;8967;47.984;7.842;2023-09-12T07:16:14;21.90;94.60
17697;DHT22;8967;47.984;7.842;2023-09-12T07:18:41;22.00;94.50
17697;DHT22;8967;47.984;7.842;2023-09-12T07:21:08;22.00;94.60
17697;DHT22;8967;47.984;7.842;2023-09-12T07:23:36;22.10;94.50
17697;DHT22;8967;47.984;7.842;2023-09-12T07:26:12;22.10;94.20
17697;DHT22;8967;47.984;7.842;2023-09-12T07:28:43;22.20;94.00
17697;DHT22;8967;47.984;7.842;2023-09-12T07:31:13;22.20;93.90
17697;DHT22;8967;47.984;7.842;2023-09-12T07:33:43;22.30;93.90
17697;DHT22;8967;47.984;7.842;2023-09-12T07:36:12;22.30;93.90
17697;DHT22;8967;47.984;7.842;2023-09-12T07:38:40;22.30;93.90
17697;DHT22;8967;47.984;7.842;2023-09-12T07:41:10;22.40;94.00
17697;DHT22;8967;47.984;7.842;2023-09-12T07:43:39;22.40;94.00
17697;DHT22;8967;47.984;7.842;2023-09-12T07:46:08;22.50;94.10
17697;DHT22;8967;47.984;7.842;2023-09-12T07:48:37;22.50;94.10
17697;DHT22;8967;47.984;7.842;2023-09-12T07:51:11;22.50;94.10
17697;DHT22;8967;47.984;7.842;2023-09-12T07:53:42;22.50;94.20
17697;DHT22;8967;47.984;7.842;2023-09-12T07:56:14;22.60;94.30
17697;DHT22;8967;47.984;7.842;2023-09-12T07:58:41;22.60;94.50
17697;DHT22;8967;47.984;7.842;2023-09-12T08:01:10;22.60;94.60
17697;DHT22;8967;47.984;7.842;2023-09-12T08:03:38;22.60;94.60
17697;DHT22;8967;47.984;7.842;2023-09-12T08:06:06;22.70;94.70
17697;DHT22;8967;47.984;7.842;2023-09-12T08:08:33;22.70;94.90
17697;DHT22;8967;47.984;7.842;2023-09-12T08:11:00;22.70;95.00
17697;DHT22;8967;47.984;7.842;2023-09-12T08:13:29;22.80;94.90
17697;DHT22;8967;47.984;7.842;2023-09-12T08:15:56;22.80;94.70
17697;DHT22;8967;47.984;7.842;2023-09-12T08:18:30;22.80;94.70
17697;DHT22;8967;47.984;7.842;2023-09-12T08:20:57;22.90;94.80
17697;DHT22;8967;47.984;7.842;2023-09-12T08:23:27;22.90;95.00
17697;DHT22;8967;47.984;7.842;2023-09-12T08:25:54;22.90;95.10
17697;DHT22;8967;47.984;7.842;2023-09-12T08:28:21;23.00;95.40
17697;DHT22;8967;47.984;7.842;2023-09-12T08:30:48;23.00;95.50
17697;DHT22;8967;47.984;7.842;2023-09-12T08:33:15;23.10;95.60
17697;DHT22;8967;47.984;7.842;2023-09-12T08:35:44;23.10;95.40
17697;DHT22;8967;47.984;7.842;2023-09-12T08:38:16;23.10;95.80
17697;DHT22;8967;47.984;7.842;2023-09-12T08:40:48;23.20;95.70
17697;DHT22;8967;47.984;7.842;2023-09-12T08:43:15;23.20;95.40
17697;DHT22;8967;47.984;7.842;2023-09-12T08:45:46;23.20;95.30
17697;DHT22;8967;47.984;7.842;2023-09-12T08:48:13;23.30;95.30
17697;DHT22;8967;47.984;7.842;2023-09-12T08:50:43;23.30;95.40
17697;DHT22;8967;47.984;7.842;2023-09-12T08:53:10;23.30;95.10
17697;DHT22;8967;47.984;7.842;2023-09-12T08:55:37;23.30;95.10
17697;DHT22;8967;47.984;7.842;2023-09-12T08:58:05;23.40;94.70
17697;DHT22;8967;47.984;7.842;2023-09-12T09:00:36;23.40;94.40
17697;DHT22;8967;47.984;7.842;2023-09-12T09:03:04;23.50;94.20
17697;DHT22;8967;47.984;7.842;2023-09-12T09:05:31;23.50;94.20
17697;DHT22;8967;47.984;7.842;2023-09-12T09:08:02;23.60;94.20
17697;DHT22;8967;47.984;7.842;2023-09-12T09:10:30;23.60;94.10
17697;DHT22;8967;47.984;7.842;2023-09-12T09:12:58;23.70;93.90
17697;DHT22;8967;47.984;7.842;2023-09-12T09:15:26;23.70;93.60
17697;DHT22;8967;47.984;7.842;2023-09-12T09:17:55;23.70;93.30
17697;DHT22;8967;47.984;7.842;2023-09-12T09:20:25;23.80;92.90
17697;DHT22;8967;47.984;7.842;2023-09-12T09:23:01;23.80;92.80
17697;DHT22;8967;47.984;7.842;2023-09-12T09:25:31;23.90;92.30
17697;DHT22;8967;47.984;7.842;2023-09-12T09:27:58;23.90;92.20
17697;DHT22;8967;47.984;7.842;2023-09-12T09:30:40;24.00;91.90
17697;DHT22;8967;47.984;7.842;2023-09-12T09:33:07;24.00;91.10
17697;DHT22;8967;47.984;7.842;2023-09-12T09:35:34;24.10;90.70
17697;DHT22;8967;47.984;7.842;2023-09-12T09:38:07;24.10;90.20
17697;DHT22;8967;47.984;7.842;2023-09-12T09:40:35;24.10;88.80
17697;DHT22;8967;47.984;7.842;2023-09-12T09:43:04;24.20;87.80
17697;DHT22;8967;47.984;7.842;2023-09-12T09:45:32;24.20;87.10
17697;DHT22;8967;47.984;7.842;2023-09-12T09:48:03;24.20;83.70
17697;DHT22;8967;47.984;7.842;2023-09-12T09:50:33;24.30;82.20
17697;DHT22;8967;47.984;7.842;2023-09-12T09:53:04;24.40;81.00
17697;DHT22;8967;47.984;7.842;2023-09-12T09:55:34;24.40;79.80
17697;DHT22;8967;47.984;7.842;2023-09-12T09:58:06;24.50;79.30
17697;DHT22;8967;47.984;7.842;2023-09-12T10:00:34;24.50;79.00
17697;DHT22;8967;47.984;7.842;2023-09-12T10:03:04;24.50;78.20
17697;DHT22;8967;47.984;7.842;2023-09-12T10:05:32;24.60;77.60
17697;DHT22;8967;47.984;7.842;2023-09-12T10:08:06;24.70;77.80
17697;DHT22;8967;47.984;7.842;2023-09-12T10:10:38;24.80;78.10
17697;DHT22;8967;47.984;7.842;2023-09-12T10:13:07;24.80;78.20
17697;DHT22;8967;47.984;7.842;2023-09-12T10:15:37;24.90;78.60
17697;DHT22;8967;47.984;7.842;2023-09-12T10:18:09;25.10;78.30
17697;DHT22;8967;47.984;7.842;2023-09-12T10:20:47;25.10;78.00
17697;DHT22;8967;47.984;7.842;2023-09-12T10:23:20;25.20;77.80
17697;DHT22;8967;47.984;7.842;2023-09-12T10:25:50;25.20;77.30
17697;DHT22;8967;47.984;7.842;2023-09-12T10:28:18;25.30;76.60
17697;DHT22;8967;47.984;7.842;2023-09-12T10:30:46;25.30;75.80
17697;DHT22;8967;47.984;7.842;2023-09-12T10:33:15;25.30;75.20
17697;DHT22;8967;47.984;7.842;2023-09-12T10:35:44;25.40;73.50
17697;DHT22;8967;47.984;7.842;2023-09-12T10:38:13;25.50;73.00
17697;DHT22;8967;47.984;7.842;2023-09-12T10:40:48;25.50;72.20
17697;DHT22;8967;47.984;7.842;2023-09-12T10:43:15;25.50;72.00
17697;DHT22;8967;47.984;7.842;2023-09-12T10:45:51;25.50;71.60
17697;DHT22;8967;47.984;7.842;2023-09-12T10:48:44;25.60;71.50
17697;DHT22;8967;47.984;7.842;2023-09-12T10:51:11;25.60;71.70
17697;DHT22;8967;47.984;7.842;2023-09-12T10:53:45;25.60;71.80
17697;DHT22;8967;47.984;7.842;2023-09-12T10:56:20;25.70;71.60
17697;DHT22;8967;47.984;7.842;2023-09-12T10:59:11;25.60;70.50
17697;DHT22;8967;47.984;7.842;2023-09-12T11:01:40;25.70;69.30
17697;DHT22;8967;47.984;7.842;2023-09-12T11:04:31;25.70;68.90
17697;DHT22;8967;47.984;7.842;2023-09-12T11:07:00;25.70;68.20
17697;DHT22;8967;47.984;7.842;2023-09-12T11:09:30;25.70;68.30
17697;DHT22;8967;47.984;7.842;2023-09-12T11:12:03;25.70;67.90
17697;DHT22;8967;47.984;7.842;2023-09-12T11:14:31;25.80;67.60
17697;DHT22;8967;47.984;7.842;2023-09-12T11:17:23;25.80;68.20
17697;DHT22;8967;47.984;7.842;2023-09-12T11:19:51;25.90;68.20
17697;DHT22;8967;47.984;7.842;2023-09-12T11:22:24;25.90;68.50
17697;DHT22;8967;47.984;7.842;2023-09-12T11:24:52;26.00;68.10
17697;DHT22;8967;47.984;7.842;2023-09-12T11:27:22;26.00;68.10
17697;DHT22;8967;47.984;7.842;2023-09-12T11:30:03;26.00;67.70
17697;DHT22;8967;47.984;7.842;2023-09-12T11:32:32;26.00;67.20
17697;DHT22;8967;47.984;7.842;2023-09-12T11:35:05;26.10;66.70
17697;DHT22;8967;47.984;7.842;2023-09-12T11:37:37;26.10;66.70
17697;DHT22;8967;47.984;7.842;2023-09-12T11:40:17;26.10;66.60
17697;DHT22;8967;47.984;7.842;2023-09-12T11:42:48;26.10;66.40
17697;DHT22;8967;47.984;7.842;2023-09-12T11:45:18;26.20;66.20
17697;DHT22;8967;47.984;7.842;2023-09-12T11:47:46;26.30;65.40
17697;DHT22;8967;47.984;7.842;2023-09-12T11:50:27;26.30;65.00
17697;DHT22;8967;47.984;7.842;2023-09-12T11:53:04;26.30;65.20
17697;DHT22;8967;47.984;7.842;2023-09-12T11:55:33;26.40;64.90
17697;DHT22;8967;47.984;7.842;2023-09-12T11:58:06;26.40;65.10
17697;DHT22;8967;47.984;7.842;2023-09-12T12:00:33;26.40;65.30
17697;DHT22;8967;47.984;7.842;2023-09-12T12:03:00;26.50;64.90
17697;DHT22;8967;47.984;7.842;2023-09-12T12:05:28;26.50;64.70
17697;DHT22;8967;47.984;7.842;2023-09-12T12:07:56;26.60;64.50
17697;DHT22;8967;47.984;7.842;2023-09-12T12:10:23;26.60;63.70
17697;DHT22;8967;47.984;7.842;2023-09-12T12:12:54;26.60;64.00
17697;DHT22;8967;47.984;7.842;2023-09-12T12:15:22;26.60;64.20
17697;DHT22;8967;47.984;7.842;2023-09-12T12:17:54;26.70;64.10
17697;DHT22;8967;47.984;7.842;2023-09-12T12:20:22;26.70;64.00
17697;DHT22;8967;47.984;7.842;2023-09-12T12:22:49;26.80;63.90
17697;DHT22;8967;47.984;7.842;2023-09-12T12:25:20;26.80;63.90
17697;DHT22;8967;47.984;7.842;2023-09-12T12:27:50;26.80;64.60
17697;DHT22;8967;47.984;7.842;2023-09-12T12:30:18;26.90;63.80
17697;DHT22;8967;47.984;7.842;2023-09-12T12:32:47;26.90;63.90
17697;DHT22;8967;47.984;7.842;2023-09-12T12:35:18;26.90;64.10
17697;DHT22;8967;47.984;7.842;2023-09-12T12:37:48;26.90;64.00
17697;DHT22;8967;47.984;7.842;2023-09-12T12:40:16;26.90;64.00
17697;DHT22;8967;47.984;7.842;2023-09-12T12:42:44;26.90;64.10
17697;DHT22;8967;47.984;7.842;2023-09-12T12:45:13;26.90;64.20
17697;DHT22;8967;47.984;7.842;2023-09-12T12:47:40;26.90;64.30
17697;DHT22;8967;47.984;7.842;2023-09-12T12:50:10;26.90;64.40
17697;DHT22;8967;47.984;7.842;2023-09-12T12:52:38;26.90;64.50
17697;DHT22;8967;47.984;7.842;2023-09-12T12:55:10;27.00;64.20
17697;DHT22;8967;47.984;7.842;2023-09-12T12:57:38;27.00;64.60
17697;DHT22;8967;47.984;7.842;2023-09-12T13:00:07;27.00;64.40
17697;DHT22;8967;47.984;7.842;2023-09-12T13:02:40;27.00;64.50
17697;DHT22;8967;47.984;7.842;2023-09-12T13:05:20;27.00;64.30
17697;DHT22;8967;47.984;7.842;2023-09-12T13:07:48;27.00;64.40
17697;DHT22;8967;47.984;7.842;2023-09-12T13:10:15;27.00;64.00
17697;DHT22;8967;47.984;7.842;2023-09-12T13:12:42;27.10;64.30
17697;DHT22;8967;47.984;7.842;2023-09-12T13:15:14;27.10;64.20
17697;DHT22;8967;47.984;7.842;2023-09-12T13:17:43;27.10;63.70
17697;DHT22;8967;47.984;7.842;2023-09-12T13:20:11;27.10;63.70
17697;DHT22;8967;47.984;7.842;2023-09-12T13:22:39;27.10;63.80
17697;DHT22;8967;47.984;7.842;2023-09-12T13:25:07;27.10;64.00
17697;DHT22;8967;47.984;7.842;2023-09-12T13:27:34;27.00;63.90
17697;DHT22;8967;47.984;7.842;2023-09-12T13:30:01;27.00;63.30
17697;DHT22;8967;47.984;7.842;2023-09-12T13:32:29;27.00;63.30
17697;DHT22;8967;47.984;7.842;2023-09-12T13:34:59;27.00;62.90
17697;DHT22;8967;47.984;7.842;2023-09-12T13:37:27;27.00;63.90
17697;DHT22;8967;47.984;7.842;2023-09-12T13:39:56;27.00;63.00
17697;DHT22;8967;47.984;7.842;2023-09-12T13:42:24;27.00;62.80
17697;DHT22;8967;47.984;7.842;2023-09-12T13:44:58;27.00;62.20
17697;DHT22;8967;47.984;7.842;2023-09-12T13:47:25;27.00;62.10
17697;DHT22;8967;47.984;7.842;2023-09-12T13:49:53;27.00;60.40
17697;DHT22;8967;47.984;7.842;2023-09-12T13:52:20;26.90;58.30
17697;DHT22;8967;47.984;7.842;2023-09-12T13:54:48;26.90;57.50
17697;DHT22;8967;47.984;7.842;2023-09-12T13:57:16;26.90;56.80
17697;DHT22;8967;47.984;7.842;2023-09-12T13:59:45;26.90;56.20
17697;DHT22;8967;47.984;7.842;2023-09-12T14:02:12;26.90;55.30
17697;DHT22;8967;47.984;7.842;2023-09-12T14:04:39;26.90;54.80
17697;DHT22;8967;47.984;7.842;2023-09-12T14:07:07;26.90;54.40
17697;DHT22;8967;47.984;7.842;2023-09-12T14:09:34;26.90;54.10
17697;DHT22;8967;47.984;7.842;2023-09-12T14:12:03;26.90;53.50
17697;DHT22;8967;47.984;7.842;2023-09-12T14:14:31;27.00;53.70
17697;DHT22;8967;47.984;7.842;2023-09-12T14:16:58;27.00;53.90
17697;DHT22;8967;47.984;7.842;2023-09-12T14:19:26;27.00;53.60
17697;DHT22;8967;47.984;7.842;2023-09-12T14:21:53;27.00;53.60
17697;DHT22;8967;47.984;7.842;2023-09-12T14:24:20;27.00;53.60
17697;DHT22;8967;47.984;7.842;2023-09-12T14:26:47;27.00;53.60
17697;DHT22;8967;47.984;7.842;2023-09-12T14:29:16;27.00;54.50
17697;DHT22;8967;47.984;7.842;2023-09-12T14:31:43;27.00;53.90
17697;DHT22;8967;47.984;7.842;2023-09-12T14:34:18;27.10;54.50
17697;DHT22;8967;47.984;7.842;2023-09-12T14:36:47;27.10;54.80
17697;DHT22;8967;47.984;7.842;2023-09-12T14:39:17;27.10;54.80
17697;DHT22;8967;47.984;7.842;2023-09-12T14:41:44;27.10;54.90
17697;DHT22;8967;47.984;7.842;2023-09-12T14:44:16;27.00;55.10
17697;DHT22;8967;47.984;7.842;2023-09-12T14:46:44;27.00;55.20
17697;DHT22;8967;47.984;7.842;2023-09-12T14:49:14;27.00;55.50
17697;DHT22;8967;47.984;7.842;2023-09-12T14:51:41;27.00;55.90
17697;DHT22;8967;47.984;7.842;2023-09-12T14:54:09;27.10;56.70
17697;DHT22;8967;47.984;7.842;2023-09-12T14:56:36;27.10;56.00
17697;DHT22;8967;47.984;7.842;2023-09-12T14:59:05;27.10;56.20
17697;DHT22;8967;47.984;7.842;2023-09-12T15:01:34;27.10;56.60
17697;DHT22;8967;47.984;7.842;2023-09-12T15:04:01;27.10;56.70
17697;DHT22;8967;47.984;7.842;2023-09-12T15:06:28;27.10;57.10
17697;DHT22;8967;47.984;7.842;2023-09-12T15:09:01;27.10;57.00
17697;DHT22;8967;47.984;7.842;2023-09-12T15:11:28;27.10;57.20
17697;DHT22;8967;47.984;7.842;2023-09-12T15:13:57;27.10;57.30
17697;DHT22;8967;47.984;7.842;2023-09-12T15:16:24;27.10;57.40
17697;DHT22;8967;47.984;7.842;2023-09-12T15:18:53;27.10;57.40
17697;DHT22;8967;47.984;7.842;2023-09-12T15:21:20;27.10;57.50
17697;DHT22;8967;47.984;7.842;2023-09-12T15:23:47;27.00;57.50
17697;DHT22;8967;47.984;7.842;2023-09-12T15:26:14;27.00;57.60
17697;DHT22;8967;47.984;7.842;2023-09-12T15:28:41;27.00;57.90
17697;DHT22;8967;47.984;7.842;2023-09-12T15:31:11;27.00;58.00
17697;DHT22;8967;47.984;7.842;2023-09-12T15:33:38;27.00;58.20
17697;DHT22;8967;47.984;7.842;2023-09-12T15:36:06;27.00;58.30
17697;DHT22;8967;47.984;7.842;2023-09-12T15:38:33;27.00;58.50
17697;DHT22;8967;47.984;7.842;2023-09-12T15:41:00;27.00;58.70
17697;DHT22;8967;47.984;7.842;2023-09-12T15:43:33;27.00;59.00
17697;DHT22;8967;47.984;7.842;2023-09-12T15:46:03;26.90;59.30
17697;DHT22;8967;47.984;7.842;2023-09-12T15:48:33;26.90;59.30
17697;DHT22;8967;47.984;7.842;2023-09-12T15:51:00;26.90;59.30
17697;DHT22;8967;47.984;7.842;2023-09-12T15:53:31;26.90;59.50
17697;DHT22;8967;47.984;7.842;2023-09-12T15:55:58;27.00;59.60
17697;DHT22;8967;47.984;7.842;2023-09-12T15:58:27;27.00;59.80